sensor_id;sensor_type;location;lat;lon;timestamp;pressure;altitude;pressure_sealevel;temperature;humidity
49825;BME280;35714;55.708;37.478;2022-09-09T00:01:46;100129.94;;;8.52;60.15
49825;BME280;35714;55.708;37.478;2022-09-09T00:07:18;100133.47;;;8.53;60.15
49825;BME280;35714;55.708;37.478;2022-09-09T00:09:56;100134.91;;;8.48;60.13
49825;BME280;35714;55.708;37.478;2022-09-09T00:12:39;100137.78;;;8.47;59.97
49825;BME280;35714;55.708;37.478;2022-09-09T00:15:12;100139.44;;;8.41;60.16
49825;BME280;35714;55.708;37.478;2022-09-09T00:17:56;100137.38;;;8.43;60.45
49825;BME280;35714;55.708;37.478;2022-09-09T00:23:09;100138.38;;;8.36;60.37
49825;BME280;35714;55.708;37.478;2022-09-09T00:25:49;100142.72;;;8.30;60.66
49825;BME280;35714;55.708;37.478;2022-09-09T00:28:22;100140.63;;;8.25;60.85
49825;BME280;35714;55.708;37.478;2022-09-09T00:30:50;100139.97;;;8.23;61.06
49825;BME280;35714;55.708;37.478;2022-09-09T00:33:23;100149.75;;;8.24;61.35
49825;BME280;35714;55.708;37.478;2022-09-09T00:35:59;100140.81;;;8.24;61.16
49825;BME280;35714;55.708;37.478;2022-09-09T00:39:02;100154.34;;;8.24;61.33
49825;BME280;35714;55.708;37.478;2022-09-09T00:46:49;100157.63;;;8.19;61.23
49825;BME280;35714;55.708;37.478;2022-09-09T00:57:31;100157.25;;;8.22;61.43
49825;BME280;35714;55.708;37.478;2022-09-09T01:00:23;100161.38;;;8.25;61.45
49825;BME280;35714;55.708;37.478;2022-09-09T01:05:43;100175.09;;;8.23;61.35
49825;BME280;35714;55.708;37.478;2022-09-09T01:10:53;100171.78;;;8.21;61.49
49825;BME280;35714;55.708;37.478;2022-09-09T01:13:28;100173.84;;;8.19;61.20
49825;BME280;35714;55.708;37.478;2022-09-09T01:16:04;100178.78;;;8.16;61.24
49825;BME280;35714;55.708;37.478;2022-09-09T01:18:40;100180.69;;;8.15;61.62
49825;BME280;35714;55.708;37.478;2022-09-09T01:24:35;100189.81;;;8.14;61.86
49825;BME280;35714;55.708;37.478;2022-09-09T01:27:10;100192.69;;;8.12;61.81
49825;BME280;35714;55.708;37.478;2022-09-09T01:29:39;100189.38;;;8.10;61.81
49825;BME280;35714;55.708;37.478;2022-09-09T01:32:40;100187.09;;;8.14;62.17
49825;BME280;35714;55.708;37.478;2022-09-09T01:35:13;100190.84;;;8.13;62.05
49825;BME280;35714;55.708;37.478;2022-09-09T01:37:41;100191.25;;;8.10;62.09
49825;BME280;35714;55.708;37.478;2022-09-09T01:40:07;100190.81;;;8.06;62.13
49825;BME280;35714;55.708;37.478;2022-09-09T01:42:34;100195.38;;;8.06;62.21
49825;BME280;35714;55.708;37.478;2022-09-09T01:44:59;100201.19;;;8.03;62.36
49825;BME280;35714;55.708;37.478;2022-09-09T01:47:25;100198.25;;;7.98;62.32
49825;BME280;35714;55.708;37.478;2022-09-09T01:50:01;100202.38;;;7.93;62.13
49825;BME280;35714;55.708;37.478;2022-09-09T01:52:30;100212.50;;;7.85;62.23
49825;BME280;35714;55.708;37.478;2022-09-09T01:54:59;100210.16;;;7.75;62.34
49825;BME280;35714;55.708;37.478;2022-09-09T02:01:13;100207.69;;;7.52;63.18
49825;BME280;35714;55.708;37.478;2022-09-09T02:03:48;100215.47;;;7.40;63.14
49825;BME280;35714;55.708;37.478;2022-09-09T02:09:00;100215.50;;;7.18;63.64
49825;BME280;35714;55.708;37.478;2022-09-09T02:11:28;100221.00;;;7.10;64.14
49825;BME280;35714;55.708;37.478;2022-09-09T02:14:18;100222.44;;;7.06;64.38
49825;BME280;35714;55.708;37.478;2022-09-09T02:16:57;100221.16;;;7.02;64.80
49825;BME280;35714;55.708;37.478;2022-09-09T02:19:44;100218.19;;;6.97;64.72
49825;BME280;35714;55.708;37.478;2022-09-09T02:22:24;100227.50;;;6.94;65.07
49825;BME280;35714;55.708;37.478;2022-09-09T02:24:55;100219.78;;;6.91;65.19
49825;BME280;35714;55.708;37.478;2022-09-09T02:27:26;100220.66;;;6.92;65.37
49825;BME280;35714;55.708;37.478;2022-09-09T02:29:53;100230.19;;;6.94;65.32
49825;BME280;35714;55.708;37.478;2022-09-09T02:32:35;100235.66;;;7.01;65.50
49825;BME280;35714;55.708;37.478;2022-09-09T02:35:08;100235.25;;;7.04;65.43
49825;BME280;35714;55.708;37.478;2022-09-09T02:37:37;100243.63;;;7.09;65.40
49825;BME280;35714;55.708;37.478;2022-09-09T02:40:05;100234.13;;;7.13;65.25
49825;BME280;35714;55.708;37.478;2022-09-09T02:42:38;100235.78;;;7.14;65.19
49825;BME280;35714;55.708;37.478;2022-09-09T02:45:05;100236.81;;;7.13;65.05
49825;BME280;35714;55.708;37.478;2022-09-09T02:50:32;100249.03;;;7.09;65.23
49825;BME280;35714;55.708;37.478;2022-09-09T02:53:15;100247.34;;;7.08;65.17
49825;BME280;35714;55.708;37.478;2022-09-09T02:56:10;100251.06;;;7.07;65.36
49825;BME280;35714;55.708;37.478;2022-09-09T02:58:41;100256.38;;;7.00;65.31
49825;BME280;35714;55.708;37.478;2022-09-09T03:01:08;100263.00;;;6.98;65.16
49825;BME280;35714;55.708;37.478;2022-09-09T03:03:34;100260.66;;;6.95;65.49
49825;BME280;35714;55.708;37.478;2022-09-09T03:06:04;100254.25;;;6.96;65.50
49825;BME280;35714;55.708;37.478;2022-09-09T03:08:31;100259.66;;;6.96;65.45
49825;BME280;35714;55.708;37.478;2022-09-09T03:10:59;100258.38;;;6.92;65.21
49825;BME280;35714;55.708;37.478;2022-09-09T03:13:28;100263.50;;;6.86;65.10
49825;BME280;35714;55.708;37.478;2022-09-09T03:15:54;100261.56;;;6.80;65.15
49825;BME280;35714;55.708;37.478;2022-09-09T03:18:20;100267.25;;;6.71;65.36
49825;BME280;35714;55.708;37.478;2022-09-09T03:20:49;100267.19;;;6.64;65.68
49825;BME280;35714;55.708;37.478;2022-09-09T03:23:17;100268.13;;;6.56;65.79
49825;BME280;35714;55.708;37.478;2022-09-09T03:25:51;100265.72;;;6.46;66.14
49825;BME280;35714;55.708;37.478;2022-09-09T03:28:22;100268.13;;;6.41;66.21
49825;BME280;35714;55.708;37.478;2022-09-09T03:30:49;100269.34;;;6.39;66.45
49825;BME280;35714;55.708;37.478;2022-09-09T03:33:15;100264.31;;;6.36;66.72
49825;BME280;35714;55.708;37.478;2022-09-09T03:35:47;100281.13;;;6.38;66.78
49825;BME280;35714;55.708;37.478;2022-09-09T03:38:18;100280.94;;;6.39;66.71
49825;BME280;35714;55.708;37.478;2022-09-09T03:40:55;100289.28;;;6.44;66.95
49825;BME280;35714;55.708;37.478;2022-09-09T03:43:22;100288.47;;;6.44;66.80
49825;BME280;35714;55.708;37.478;2022-09-09T03:45:48;100280.56;;;6.42;66.79
49825;BME280;35714;55.708;37.478;2022-09-09T03:48:16;100288.91;;;6.47;66.90
49825;BME280;35714;55.708;37.478;2022-09-09T03:50:49;100297.28;;;6.53;67.16
49825;BME280;35714;55.708;37.478;2022-09-09T03:53:17;100300.63;;;6.55;66.93
49825;BME280;35714;55.708;37.478;2022-09-09T03:55:50;100295.88;;;6.57;67.07
49825;BME280;35714;55.708;37.478;2022-09-09T03:58:23;100295.50;;;6.60;67.10
49825;BME280;35714;55.708;37.478;2022-09-09T04:00:57;100301.38;;;6.63;67.09
49825;BME280;35714;55.708;37.478;2022-09-09T04:03:25;100305.53;;;6.66;67.13
49825;BME280;35714;55.708;37.478;2022-09-09T04:05:52;100304.16;;;6.70;66.99
49825;BME280;35714;55.708;37.478;2022-09-09T04:08:18;100306.47;;;6.73;66.67
49825;BME280;35714;55.708;37.478;2022-09-09T04:10:46;100304.03;;;6.78;66.69
49825;BME280;35714;55.708;37.478;2022-09-09T04:13:14;100310.56;;;6.84;66.88
49825;BME280;35714;55.708;37.478;2022-09-09T04:15:40;100302.28;;;6.85;66.68
49825;BME280;35714;55.708;37.478;2022-09-09T04:18:06;100312.94;;;6.94;66.55
49825;BME280;35714;55.708;37.478;2022-09-09T04:20:32;100309.50;;;7.00;66.60
49825;BME280;35714;55.708;37.478;2022-09-09T04:22:58;100307.88;;;7.05;66.29
49825;BME280;35714;55.708;37.478;2022-09-09T04:25:24;100318.97;;;7.11;66.33
49825;BME280;35714;55.708;37.478;2022-09-09T04:27:56;100312.19;;;7.21;66.21
49825;BME280;35714;55.708;37.478;2022-09-09T04:30:23;100312.28;;;7.28;65.99
49825;BME280;35714;55.708;37.478;2022-09-09T04:32:48;100311.97;;;7.38;65.69
49825;BME280;35714;55.708;37.478;2022-09-09T04:35:14;100310.81;;;7.47;65.47
49825;BME280;35714;55.708;37.478;2022-09-09T04:37:40;100315.06;;;7.56;65.12
49825;BME280;35714;55.708;37.478;2022-09-09T04:40:07;100312.03;;;7.66;64.83
49825;BME280;35714;55.708;37.478;2022-09-09T04:42:36;100315.44;;;7.75;64.34
49825;BME280;35714;55.708;37.478;2022-09-09T04:45:03;100313.03;;;7.87;63.97
49825;BME280;35714;55.708;37.478;2022-09-09T04:47:29;100321.66;;;7.97;63.93
49825;BME280;35714;55.708;37.478;2022-09-09T04:49:55;100312.34;;;8.06;63.52
49825;BME280;35714;55.708;37.478;2022-09-09T04:52:22;100320.13;;;8.16;63.17
49825;BME280;35714;55.708;37.478;2022-09-09T04:54:48;100317.25;;;8.24;62.95
49825;BME280;35714;55.708;37.478;2022-09-09T04:57:14;100324.38;;;8.32;62.37
49825;BME280;35714;55.708;37.478;2022-09-09T04:59:40;100322.09;;;8.36;62.26
49825;BME280;35714;55.708;37.478;2022-09-09T05:02:06;100321.97;;;8.44;61.74
49825;BME280;35714;55.708;37.478;2022-09-09T05:04:32;100321.84;;;8.52;61.58
49825;BME280;35714;55.708;37.478;2022-09-09T05:06:59;100320.81;;;8.60;61.20
49825;BME280;35714;55.708;37.478;2022-09-09T05:09:25;100330.00;;;8.65;61.14
49825;BME280;35714;55.708;37.478;2022-09-09T05:11:51;100328.59;;;8.76;60.80
49825;BME280;35714;55.708;37.478;2022-09-09T05:14:28;100330.09;;;8.85;60.46
49825;BME280;35714;55.708;37.478;2022-09-09T05:16:55;100336.81;;;8.96;60.19
49825;BME280;35714;55.708;37.478;2022-09-09T05:19:22;100348.47;;;9.03;59.65
49825;BME280;35714;55.708;37.478;2022-09-09T05:21:48;100348.94;;;9.14;59.32
49825;BME280;35714;55.708;37.478;2022-09-09T05:24:19;100346.47;;;9.19;59.15
49825;BME280;35714;55.708;37.478;2022-09-09T05:26:46;100352.34;;;9.29;58.95
49825;BME280;35714;55.708;37.478;2022-09-09T05:29:12;100349.44;;;9.37;58.77
49825;BME280;35714;55.708;37.478;2022-09-09T05:31:38;100348.22;;;9.47;58.57
49825;BME280;35714;55.708;37.478;2022-09-09T05:34:08;100342.41;;;9.56;58.15
49825;BME280;35714;55.708;37.478;2022-09-09T05:36:34;100347.81;;;9.63;57.96
49825;BME280;35714;55.708;37.478;2022-09-09T05:39:00;100339.94;;;9.68;57.70
49825;BME280;35714;55.708;37.478;2022-09-09T05:41:27;100342.44;;;9.77;57.51
49825;BME280;35714;55.708;37.478;2022-09-09T05:43:56;100346.59;;;9.86;57.33
49825;BME280;35714;55.708;37.478;2022-09-09T05:46:23;100350.34;;;9.98;57.07
49825;BME280;35714;55.708;37.478;2022-09-09T05:48:51;100348.06;;;10.08;57.08
49825;BME280;35714;55.708;37.478;2022-09-09T05:51:25;100341.59;;;10.23;56.32
49825;BME280;35714;55.708;37.478;2022-09-09T05:53:54;100350.34;;;10.38;56.10
49825;BME280;35714;55.708;37.478;2022-09-09T05:56:24;100355.78;;;10.52;55.63
49825;BME280;35714;55.708;37.478;2022-09-09T05:58:52;100351.34;;;10.64;55.30
49825;BME280;35714;55.708;37.478;2022-09-09T06:01:26;100359.00;;;10.87;54.71
49825;BME280;35714;55.708;37.478;2022-09-09T06:03:52;100353.47;;;11.14;54.25
49825;BME280;35714;55.708;37.478;2022-09-09T06:06:23;100355.84;;;11.42;53.85
49825;BME280;35714;55.708;37.478;2022-09-09T06:08:52;100360.38;;;11.80;53.50
49825;BME280;35714;55.708;37.478;2022-09-09T06:11:21;100353.34;;;12.30;52.72
49825;BME280;35714;55.708;37.478;2022-09-09T06:13:48;100361.88;;;12.77;51.25
49825;BME280;35714;55.708;37.478;2022-09-09T06:16:18;100359.31;;;13.31;50.76
49825;BME280;35714;55.708;37.478;2022-09-09T06:18:44;100358.00;;;13.82;48.45
49825;BME280;35714;55.708;37.478;2022-09-09T06:21:19;100361.28;;;14.38;46.80
49825;BME280;35714;55.708;37.478;2022-09-09T06:23:46;100376.22;;;14.95;46.67
49825;BME280;35714;55.708;37.478;2022-09-09T06:26:21;100367.81;;;15.54;43.59
49825;BME280;35714;55.708;37.478;2022-09-09T06:28:50;100371.72;;;16.04;43.35
49825;BME280;35714;55.708;37.478;2022-09-09T06:31:20;100371.69;;;16.55;41.89
49825;BME280;35714;55.708;37.478;2022-09-09T06:33:51;100376.31;;;17.10;40.25
49825;BME280;35714;55.708;37.478;2022-09-09T06:36:23;100368.22;;;17.48;37.83
49825;BME280;35714;55.708;37.478;2022-09-09T06:38:50;100374.69;;;17.86;38.17
49825;BME280;35714;55.708;37.478;2022-09-09T06:41:19;100374.09;;;18.49;37.22
49825;BME280;35714;55.708;37.478;2022-09-09T06:43:46;100383.28;;;19.18;35.78
49825;BME280;35714;55.708;37.478;2022-09-09T06:53:43;100386.28;;;19.95;32.58
49825;BME280;35714;55.708;37.478;2022-09-09T06:58:41;100392.31;;;19.76;31.81
49825;BME280;35714;55.708;37.478;2022-09-09T07:01:26;100391.25;;;20.24;30.68
49825;BME280;35714;55.708;37.478;2022-09-09T07:03:55;100396.72;;;20.34;30.33
49825;BME280;35714;55.708;37.478;2022-09-09T07:06:29;100397.00;;;19.91;29.76
49825;BME280;35714;55.708;37.478;2022-09-09T07:09:00;100388.41;;;19.62;31.19
49825;BME280;35714;55.708;37.478;2022-09-09T07:11:30;100402.25;;;20.18;30.64
49825;BME280;35714;55.708;37.478;2022-09-09T07:13:58;100402.16;;;21.01;29.70
49825;BME280;35714;55.708;37.478;2022-09-09T07:16:25;100399.59;;;21.80;28.20
49825;BME280;35714;55.708;37.478;2022-09-09T07:18:51;100399.69;;;22.44;27.18
49825;BME280;35714;55.708;37.478;2022-09-09T07:21:18;100408.41;;;22.56;26.71
49825;BME280;35714;55.708;37.478;2022-09-09T07:23:46;100408.81;;;22.05;26.76
49825;BME280;35714;55.708;37.478;2022-09-09T07:26:17;100417.50;;;21.27;27.01
49825;BME280;35714;55.708;37.478;2022-09-09T07:28:45;100404.44;;;20.63;27.84
49825;BME280;35714;55.708;37.478;2022-09-09T07:31:15;100417.13;;;20.12;28.21
49825;BME280;35714;55.708;37.478;2022-09-09T07:33:43;100418.09;;;19.60;28.97
49825;BME280;35714;55.708;37.478;2022-09-09T07:36:17;100427.81;;;19.15;29.16
49825;BME280;35714;55.708;37.478;2022-09-09T07:38:45;100425.66;;;18.79;29.95
49825;BME280;35714;55.708;37.478;2022-09-09T07:41:20;100422.16;;;18.51;29.58
49825;BME280;35714;55.708;37.478;2022-09-09T07:43:48;100424.25;;;18.01;30.02
49825;BME280;35714;55.708;37.478;2022-09-09T07:46:16;100429.50;;;17.59;31.01
49825;BME280;35714;55.708;37.478;2022-09-09T07:48:48;100433.13;;;17.37;31.38
49825;BME280;35714;55.708;37.478;2022-09-09T07:51:32;100426.69;;;18.03;30.77
49825;BME280;35714;55.708;37.478;2022-09-09T07:54:02;100435.84;;;19.26;29.67
49825;BME280;35714;55.708;37.478;2022-09-09T07:56:30;100439.72;;;20.66;27.53
49825;BME280;35714;55.708;37.478;2022-09-09T07:58:57;100438.41;;;21.39;26.59
49825;BME280;35714;55.708;37.478;2022-09-09T08:01:49;100448.13;;;21.86;26.62
49825;BME280;35714;55.708;37.478;2022-09-09T08:04:24;100443.91;;;21.44;25.60
49825;BME280;35714;55.708;37.478;2022-09-09T08:07:34;100446.88;;;20.77;25.66
49825;BME280;35714;55.708;37.478;2022-09-09T08:10:03;100443.00;;;20.06;26.70
49825;BME280;35714;55.708;37.478;2022-09-09T08:12:30;100437.94;;;19.67;27.40
49825;BME280;35714;55.708;37.478;2022-09-09T08:14:56;100446.91;;;19.37;27.70
49825;BME280;35714;55.708;37.478;2022-09-09T08:17:25;100440.19;;;19.17;28.02
49825;BME280;35714;55.708;37.478;2022-09-09T08:19:51;100447.25;;;18.98;27.99
49825;BME280;35714;55.708;37.478;2022-09-09T08:22:23;100442.97;;;18.80;28.74
49825;BME280;35714;55.708;37.478;2022-09-09T08:24:50;100448.41;;;18.69;28.77
49825;BME280;35714;55.708;37.478;2022-09-09T08:27:16;100453.78;;;18.54;28.63
49825;BME280;35714;55.708;37.478;2022-09-09T08:29:42;100450.94;;;18.44;29.06
49825;BME280;35714;55.708;37.478;2022-09-09T08:32:08;100447.16;;;18.17;29.05
49825;BME280;35714;55.708;37.478;2022-09-09T08:34:35;100453.50;;;17.91;29.38
49825;BME280;35714;55.708;37.478;2022-09-09T08:37:06;100450.25;;;17.72;30.07
49825;BME280;35714;55.708;37.478;2022-09-09T08:39:37;100453.94;;;17.60;30.02
49825;BME280;35714;55.708;37.478;2022-09-09T08:42:09;100440.38;;;17.98;30.38
49825;BME280;35714;55.708;37.478;2022-09-09T08:50:29;100448.13;;;19.72;27.91
49825;BME280;35714;55.708;37.478;2022-09-09T08:55:48;100451.81;;;20.34;27.54
49825;BME280;35714;55.708;37.478;2022-09-09T08:58:32;100460.06;;;20.54;27.96
49825;BME280;35714;55.708;37.478;2022-09-09T09:09:34;100462.44;;;21.28;25.58
49825;BME280;35714;55.708;37.478;2022-09-09T09:12:15;100468.25;;;21.32;24.89
49825;BME280;35714;55.708;37.478;2022-09-09T09:14:43;100463.59;;;21.17;25.75
49825;BME280;35714;55.708;37.478;2022-09-09T09:17:14;100476.91;;;20.84;25.87
49825;BME280;35714;55.708;37.478;2022-09-09T09:19:42;100473.56;;;20.30;26.79
49825;BME280;35714;55.708;37.478;2022-09-09T09:22:40;100464.03;;;19.64;27.14
49825;BME280;35714;55.708;37.478;2022-09-09T09:30:18;100463.97;;;20.69;27.19
49825;BME280;35714;55.708;37.478;2022-09-09T09:32:56;100468.81;;;22.39;25.26
49825;BME280;35714;55.708;37.478;2022-09-09T09:35:24;100465.81;;;23.47;23.99
49825;BME280;35714;55.708;37.478;2022-09-09T09:37:50;100465.44;;;23.54;23.45
49825;BME280;35714;55.708;37.478;2022-09-09T09:40:19;100463.88;;;23.23;23.27
49825;BME280;35714;55.708;37.478;2022-09-09T09:43:00;100458.06;;;22.66;23.12
49825;BME280;35714;55.708;37.478;2022-09-09T09:46:00;100462.47;;;21.93;24.11
49825;BME280;35714;55.708;37.478;2022-09-09T09:48:19;100453.03;;;21.50;24.60
49825;BME280;35714;55.708;37.478;2022-09-09T09:50:54;100457.84;;;21.84;24.58
49825;BME280;35714;55.708;37.478;2022-09-09T09:53:32;100461.69;;;22.62;23.86
49825;BME280;35714;55.708;37.478;2022-09-09T09:56:04;100464.13;;;22.68;23.60
49825;BME280;35714;55.708;37.478;2022-09-09T09:58:33;100459.59;;;22.09;23.96
49825;BME280;35714;55.708;37.478;2022-09-09T10:01:05;100470.44;;;21.40;24.73
49825;BME280;35714;55.708;37.478;2022-09-09T10:03:33;100460.91;;;20.86;25.15
49825;BME280;35714;55.708;37.478;2022-09-09T10:06:03;100470.03;;;20.71;25.56
49825;BME280;35714;55.708;37.478;2022-09-09T10:08:34;100466.44;;;21.72;25.01
49825;BME280;35714;55.708;37.478;2022-09-09T10:11:18;100466.44;;;23.63;23.17
49825;BME280;35714;55.708;37.478;2022-09-09T10:16:56;100464.16;;;24.93;21.04
49825;BME280;35714;55.708;37.478;2022-09-09T10:19:35;100466.34;;;24.44;21.32
49825;BME280;35714;55.708;37.478;2022-09-09T10:33:10;100465.63;;;27.10;18.93
49825;BME280;35714;55.708;37.478;2022-09-09T10:36:12;100476.56;;;28.65;17.43
49825;BME280;35714;55.708;37.478;2022-09-09T10:38:41;100470.50;;;29.49;15.87
49825;BME280;35714;55.708;37.478;2022-09-09T10:41:37;100470.59;;;28.93;16.21
49825;BME280;35714;55.708;37.478;2022-09-09T10:44:17;100469.63;;;27.66;17.50
49825;BME280;35714;55.708;37.478;2022-09-09T10:50:06;100481.06;;;25.52;18.81
49825;BME280;35714;55.708;37.478;2022-09-09T10:53:00;100472.34;;;24.52;20.07
49825;BME280;35714;55.708;37.478;2022-09-09T10:55:39;100475.66;;;23.77;20.20
49825;BME280;35714;55.708;37.478;2022-09-09T10:58:12;100471.94;;;23.20;20.88
49825;BME280;35714;55.708;37.478;2022-09-09T11:00:44;100467.94;;;23.74;20.61
49825;BME280;35714;55.708;37.478;2022-09-09T11:03:29;100467.78;;;25.49;19.10
49825;BME280;35714;55.708;37.478;2022-09-09T11:06:11;100473.66;;;27.03;17.73
49825;BME280;35714;55.708;37.478;2022-09-09T11:08:39;100477.41;;;28.31;16.95
49825;BME280;35714;55.708;37.478;2022-09-09T11:11:17;100470.34;;;28.33;16.28
49825;BME280;35714;55.708;37.478;2022-09-09T11:19:02;100475.19;;;25.68;19.18
49825;BME280;35714;55.708;37.478;2022-09-09T11:21:35;100474.50;;;24.55;19.86
49825;BME280;35714;55.708;37.478;2022-09-09T11:24:06;100474.59;;;23.73;20.86
49825;BME280;35714;55.708;37.478;2022-09-09T11:26:44;100474.53;;;23.11;21.58
49825;BME280;35714;55.708;37.478;2022-09-09T11:29:52;100492.38;;;22.60;22.26
49825;BME280;35714;55.708;37.478;2022-09-09T11:42:42;100473.81;;;23.92;20.46
49825;BME280;35714;55.708;37.478;2022-09-09T11:45:22;100483.19;;;22.99;21.28
49825;BME280;35714;55.708;37.478;2022-09-09T11:47:59;100477.81;;;22.15;21.75
49825;BME280;35714;55.708;37.478;2022-09-09T11:53:04;100473.41;;;24.56;19.81
49825;BME280;35714;55.708;37.478;2022-09-09T11:55:34;100474.06;;;26.19;19.11
49825;BME280;35714;55.708;37.478;2022-09-09T11:58:24;100464.69;;;26.83;18.30
49825;BME280;35714;55.708;37.478;2022-09-09T12:00:49;100468.06;;;26.26;18.29
49825;BME280;35714;55.708;37.478;2022-09-09T12:03:39;100465.00;;;25.21;19.04
49825;BME280;35714;55.708;37.478;2022-09-09T12:06:16;100474.22;;;24.89;19.16
49825;BME280;35714;55.708;37.478;2022-09-09T12:08:50;100474.09;;;25.41;18.97
49825;BME280;35714;55.708;37.478;2022-09-09T12:11:28;100475.19;;;25.40;19.05
49825;BME280;35714;55.708;37.478;2022-09-09T12:13:58;100472.47;;;24.79;19.88
49825;BME280;35714;55.708;37.478;2022-09-09T12:16:36;100473.81;;;23.92;20.53
49825;BME280;35714;55.708;37.478;2022-09-09T12:19:22;100464.22;;;22.87;21.93
49825;BME280;35714;55.708;37.478;2022-09-09T12:22:03;100471.34;;;22.30;22.79
49825;BME280;35714;55.708;37.478;2022-09-09T12:27:38;100479.28;;;23.97;21.77
49825;BME280;35714;55.708;37.478;2022-09-09T12:32:36;100473.03;;;26.15;19.09
49825;BME280;35714;55.708;37.478;2022-09-09T12:35:12;100473.28;;;26.95;18.14
49825;BME280;35714;55.708;37.478;2022-09-09T12:37:59;100470.38;;;27.98;16.78
49825;BME280;35714;55.708;37.478;2022-09-09T12:40:27;100471.09;;;28.86;16.52
49825;BME280;35714;55.708;37.478;2022-09-09T12:42:53;100466.88;;;29.87;15.39
49825;BME280;35714;55.708;37.478;2022-09-09T12:45:21;100463.03;;;30.67;14.32
49825;BME280;35714;55.708;37.478;2022-09-09T12:47:57;100469.22;;;31.31;13.68
49825;BME280;35714;55.708;37.478;2022-09-09T12:50:35;100470.03;;;31.44;12.96
49825;BME280;35714;55.708;37.478;2022-09-09T12:53:24;100467.47;;;31.51;13.48
49825;BME280;35714;55.708;37.478;2022-09-09T12:56:24;100464.66;;;31.14;13.61
49825;BME280;35714;55.708;37.478;2022-09-09T12:58:53;100464.13;;;30.75;13.56
49825;BME280;35714;55.708;37.478;2022-09-09T13:01:31;100463.16;;;30.71;13.44
49825;BME280;35714;55.708;37.478;2022-09-09T13:03:59;100464.41;;;29.85;14.01
49825;BME280;35714;55.708;37.478;2022-09-09T13:06:29;100463.63;;;29.76;14.76
49825;BME280;35714;55.708;37.478;2022-09-09T13:08:59;100457.47;;;29.92;13.77
49825;BME280;35714;55.708;37.478;2022-09-09T13:11:41;100464.41;;;28.70;14.93
49825;BME280;35714;55.708;37.478;2022-09-09T13:14:17;100464.00;;;27.49;15.98
49825;BME280;35714;55.708;37.478;2022-09-09T13:16:56;100463.38;;;27.69;16.35
49825;BME280;35714;55.708;37.478;2022-09-09T13:19:22;100464.03;;;27.66;16.47
49825;BME280;35714;55.708;37.478;2022-09-09T13:21:51;100458.88;;;27.33;16.23
49825;BME280;35714;55.708;37.478;2022-09-09T13:24:34;100465.41;;;26.66;16.90
49825;BME280;35714;55.708;37.478;2022-09-09T13:27:02;100461.06;;;25.78;18.02
49825;BME280;35714;55.708;37.478;2022-09-09T13:29:32;100470.31;;;26.01;18.01
49825;BME280;35714;55.708;37.478;2022-09-09T13:32:17;100466.22;;;27.29;17.17
49825;BME280;35714;55.708;37.478;2022-09-09T13:35:01;100465.41;;;28.48;16.10
49825;BME280;35714;55.708;37.478;2022-09-09T13:37:35;100458.91;;;29.38;14.97
49825;BME280;35714;55.708;37.478;2022-09-09T13:40:03;100467.59;;;30.17;14.40
49825;BME280;35714;55.708;37.478;2022-09-09T13:42:34;100460.97;;;30.43;13.93
49825;BME280;35714;55.708;37.478;2022-09-09T13:45:01;100463.34;;;30.32;14.27
49825;BME280;35714;55.708;37.478;2022-09-09T13:47:36;100465.56;;;30.05;14.13
49825;BME280;35714;55.708;37.478;2022-09-09T13:50:26;100459.94;;;30.27;13.59
49825;BME280;35714;55.708;37.478;2022-09-09T13:52:54;100460.69;;;30.36;13.73
49825;BME280;35714;55.708;37.478;2022-09-09T13:55:22;100466.63;;;30.55;14.15
49825;BME280;35714;55.708;37.478;2022-09-09T13:57:54;100460.63;;;30.90;13.68
49825;BME280;35714;55.708;37.478;2022-09-09T14:00:20;100463.03;;;31.13;13.54
49825;BME280;35714;55.708;37.478;2022-09-09T14:02:48;100454.84;;;31.08;13.62
49825;BME280;35714;55.708;37.478;2022-09-09T14:05:14;100454.25;;;30.02;13.91
49825;BME280;35714;55.708;37.478;2022-09-09T14:07:43;100463.78;;;28.29;15.29
49825;BME280;35714;55.708;37.478;2022-09-09T14:10:10;100456.91;;;26.48;16.34
49825;BME280;35714;55.708;37.478;2022-09-09T14:12:36;100461.59;;;24.97;18.02
49825;BME280;35714;55.708;37.478;2022-09-09T14:15:07;100458.47;;;24.19;18.96
49825;BME280;35714;55.708;37.478;2022-09-09T14:17:34;100452.03;;;24.04;19.22
49825;BME280;35714;55.708;37.478;2022-09-09T14:20:05;100462.72;;;24.11;19.18
49825;BME280;35714;55.708;37.478;2022-09-09T14:22:34;100452.72;;;23.53;19.52
49825;BME280;35714;55.708;37.478;2022-09-09T14:24:59;100463.22;;;23.02;20.42
49825;BME280;35714;55.708;37.478;2022-09-09T14:27:25;100458.91;;;23.45;20.41
49825;BME280;35714;55.708;37.478;2022-09-09T14:29:54;100455.59;;;24.24;19.68
49825;BME280;35714;55.708;37.478;2022-09-09T14:32:20;100450.50;;;24.97;19.03
49825;BME280;35714;55.708;37.478;2022-09-09T14:34:46;100449.28;;;25.58;18.39
49825;BME280;35714;55.708;37.478;2022-09-09T14:37:16;100452.72;;;25.78;17.58
49825;BME280;35714;55.708;37.478;2022-09-09T14:39:43;100442.91;;;25.58;17.95
49825;BME280;35714;55.708;37.478;2022-09-09T14:42:10;100453.91;;;25.21;18.45
49825;BME280;35714;55.708;37.478;2022-09-09T14:44:37;100456.66;;;24.28;19.39
49825;BME280;35714;55.708;37.478;2022-09-09T14:47:06;100447.03;;;23.44;20.04
49825;BME280;35714;55.708;37.478;2022-09-09T14:49:35;100454.72;;;22.99;21.06
49825;BME280;35714;55.708;37.478;2022-09-09T14:52:03;100456.72;;;22.24;21.63
49825;BME280;35714;55.708;37.478;2022-09-09T14:54:31;100445.81;;;22.04;22.31
49825;BME280;35714;55.708;37.478;2022-09-09T14:56:58;100448.91;;;22.37;21.85
49825;BME280;35714;55.708;37.478;2022-09-09T14:59:24;100447.84;;;22.27;21.58